Huvudsida
METAR-TAF:

METAR-TAF

Flygplatser :

Adolfo Suárez Madrid-Barajas flygplats

Madrid, Spanien

latitud: 40-27N, longitud: 003-33W, höjd: 609 m

Aktuellt väderrapport

Denna rapport gjordes för 28 minuter sedan, klockan 20:00 UTC
Vind 1 kt varierande vindriktning
Temperatur 6°C
Fuktighet 70%
Tryck 1028 hPa
Sikt 10 km eller mer
Inga moln under 1 500 m eller inga cumulonimbus

METAR: LEMD 192000Z VRB01KT CAVOK 06/01 Q1028 NOSIG

Tid: 21:28 (20:28 UTC)

Väderprognos

Denna rapport gjordes för 3 timmar och 28 minuter sedan, klockan 17:00 UTC
Prognos gäller från 19 kl. 18 UTC till 20 kl. 24 UTC
Vind 2 kt varierande vindriktning
Sikt 10 km eller mer
Inga moln under 1 500 m eller inga cumulonimbus

TAF: LEMD 191700Z 1918/2024 VRB02KT CAVOK TX17/2016Z TN00/2006Z

Aktuella väderrapporter och prognoser från 4000 flygplatser (METAR- och TAF-rapporter).

De tillgängliga stationerna syns som gula och röda prickar på kartan.

För musen över prickarna för att se namnen på stationerna.

Klicka sedan för att få väderrapporter och prognoser.

För att ändra kartan: Klicka på de gröna knapparna med ett svart kors på för att zooma in; den gröna knappen med ett streck på för att zooma ut; eller på de gröna pilarna för angränsande kartor.


METAR-TAF: